40J

Perry-Foley Airport

Perry, Florida, USA
METAR K40J 181115Z AUTO 04004KT 10SM CLR 21/19 A3021 RMK AO2 T02130187
Observed Flight Rules
Oct-18 @ 11:15 UTC (32 minutes ago) Visual Flight Rules
Wind Visibility Clouds
40° at 4 knots 10 miles
  • Clear skies
Temperatures Readings
Current 21°C / 70°F
Dewpoint 19°C / 66°F
Humidity 88%
Altimeter 30.21" Hg
Pressure 1023 hPa
Elevation 13
METAR K40J 181115Z AUTO 04004KT 10SM CLR 21/19 A3021 RMK AO2 T02130187
Observed Flight Rules
Oct-18 @ 11:15 UTC
(32 minutes ago)
VFR
Wind Visibility
40° at 4 knots 10 miles
Clouds
  • Clear skies
Temperature Dewpoint
21°C / 70°F 19°C / 66°F
Humidity Altimeter Pressure
88% 30.21" Hg 1023 hPa